createdAt,value
2023-04-27T00:00:11.330Z,24.24
2023-04-27T00:01:11.265Z,24.22
2023-04-27T00:02:11.391Z,24.21
2023-04-27T00:03:11.434Z,24.21
2023-04-27T00:04:11.649Z,24.21
2023-04-27T00:05:11.612Z,24.22
2023-04-27T00:06:11.439Z,24.23
2023-04-27T00:07:11.411Z,24.23
2023-04-27T00:08:11.492Z,24.22
2023-04-27T00:09:11.695Z,24.25
2023-04-27T00:10:11.493Z,24.22
2023-04-27T00:11:11.635Z,24.24
2023-04-27T00:12:11.577Z,24.25
2023-04-27T00:13:11.625Z,24.25
2023-04-27T00:14:11.636Z,24.26
2023-04-27T00:15:11.652Z,24.26
2023-04-27T00:16:11.689Z,24.26
2023-04-27T00:17:11.738Z,24.26
2023-04-27T00:18:11.735Z,24.27
2023-04-27T00:19:11.889Z,24.28
2023-04-27T00:20:11.796Z,24.31
2023-04-27T00:21:11.815Z,24.32
2023-04-27T00:22:11.846Z,24.33
2023-04-27T00:23:11.851Z,24.31
2023-04-27T00:24:11.894Z,24.30
2023-04-27T00:25:11.937Z,24.31
2023-04-27T00:26:11.963Z,24.30
2023-04-27T00:27:11.965Z,24.31
2023-04-27T00:28:12.002Z,24.30
2023-04-27T00:29:12.254Z,24.33
2023-04-27T00:30:12.039Z,24.31
2023-04-27T00:31:12.073Z,24.30
2023-04-27T00:32:12.226Z,24.31
2023-04-27T00:33:12.243Z,24.30
2023-04-27T00:34:12.167Z,24.32
2023-04-27T00:35:12.171Z,24.33
2023-04-27T00:36:12.226Z,24.33
2023-04-27T00:37:12.253Z,24.31
2023-04-27T00:38:12.273Z,24.33
2023-04-27T00:39:12.532Z,24.34
2023-04-27T00:40:12.333Z,24.34
2023-04-27T00:41:12.385Z,24.34
2023-04-27T00:42:12.416Z,24.35
2023-04-27T00:43:12.438Z,24.35
2023-04-27T00:44:12.453Z,24.36
2023-04-27T00:45:12.518Z,24.35
2023-04-27T00:46:12.538Z,24.35
2023-04-27T00:47:12.559Z,24.34
2023-04-27T00:48:12.578Z,24.35
2023-04-27T00:49:12.755Z,24.34
2023-04-27T00:50:12.736Z,24.37
2023-04-27T00:51:12.699Z,24.35
2023-04-27T00:52:12.730Z,24.37
2023-04-27T00:53:12.767Z,24.37
2023-04-27T00:54:12.780Z,24.36
2023-04-27T00:55:12.796Z,24.38
2023-04-27T00:56:12.828Z,24.39
2023-04-27T00:57:12.863Z,24.39
2023-04-27T00:58:12.874Z,24.39
2023-04-27T00:59:13.186Z,24.40
2023-04-27T01:00:12.944Z,24.40
2023-04-27T01:01:13.063Z,24.40
2023-04-27T01:02:13.070Z,24.41
2023-04-27T01:03:13.156Z,24.41
2023-04-27T01:04:13.165Z,24.39
2023-04-27T01:05:13.196Z,24.42
2023-04-27T01:06:13.127Z,24.42
2023-04-27T01:07:13.169Z,24.41
2023-04-27T01:08:13.175Z,24.43
2023-04-27T01:09:13.507Z,24.41
2023-04-27T01:10:13.238Z,24.41
2023-04-27T01:11:13.233Z,24.43
2023-04-27T01:12:13.250Z,24.43
2023-04-27T01:13:13.222Z,24.44
2023-04-27T01:14:13.260Z,24.42
2023-04-27T01:15:13.233Z,24.44
2023-04-27T01:16:13.322Z,24.44
2023-04-27T01:17:13.270Z,24.47
2023-04-27T01:18:13.288Z,24.48
2023-04-27T01:19:13.566Z,24.44
2023-04-27T01:20:13.311Z,24.46
2023-04-27T01:21:13.340Z,24.45
2023-04-27T01:22:13.381Z,24.47
2023-04-27T01:23:16.128Z,24.48
2023-04-27T01:24:13.443Z,24.49
2023-04-27T01:25:13.412Z,24.49
2023-04-27T01:26:13.395Z,24.49
2023-04-27T01:27:13.388Z,24.49
2023-04-27T01:28:13.377Z,24.52
2023-04-27T01:29:13.637Z,24.49
2023-04-27T01:30:13.364Z,24.52
2023-04-27T01:31:13.414Z,24.53
2023-04-27T01:32:13.357Z,24.54
2023-04-27T01:33:13.369Z,24.56
2023-04-27T01:34:13.356Z,24.58
2023-04-27T01:35:13.360Z,24.56
2023-04-27T01:36:13.345Z,24.56
2023-04-27T01:37:13.393Z,24.56
2023-04-27T01:38:13.315Z,24.57
2023-04-27T01:39:13.517Z,24.55
2023-04-27T01:40:13.310Z,24.54
2023-04-27T01:41:13.331Z,24.57
2023-04-27T01:42:13.304Z,24.55
2023-04-27T01:43:13.283Z,24.56
2023-04-27T01:44:13.276Z,24.58
2023-04-27T01:45:13.283Z,24.59
2023-04-27T01:46:13.306Z,24.60
2023-04-27T01:47:13.283Z,24.59
2023-04-27T01:48:13.272Z,24.60
2023-04-27T01:49:13.413Z,24.62
2023-04-27T01:50:13.246Z,24.62
2023-04-27T01:51:13.239Z,24.62
2023-04-27T01:52:13.234Z,24.61
2023-04-27T01:53:13.228Z,24.60
2023-04-27T01:54:13.243Z,24.62
2023-04-27T01:55:13.213Z,24.64
2023-04-27T01:56:13.205Z,24.60
2023-04-27T01:57:13.206Z,24.58
2023-04-27T01:58:13.184Z,24.60
2023-04-27T01:59:13.329Z,24.60
2023-04-27T02:00:13.170Z,24.60
2023-04-27T02:01:13.224Z,24.61
2023-04-27T02:02:13.177Z,24.60
2023-04-27T02:03:13.251Z,24.60
2023-04-27T02:04:13.380Z,24.62
2023-04-27T02:05:13.129Z,24.62
2023-04-27T02:06:13.202Z,24.63
2023-04-27T02:07:13.131Z,24.61
2023-04-27T02:08:13.108Z,24.62
2023-04-27T02:09:13.294Z,24.60
2023-04-27T02:10:13.089Z,24.60
2023-04-27T02:11:13.130Z,24.59
2023-04-27T02:12:13.204Z,24.59
2023-04-27T02:13:13.118Z,24.60
2023-04-27T02:14:13.063Z,24.58
2023-04-27T02:15:13.064Z,24.55
2023-04-27T02:16:13.133Z,24.54
2023-04-27T02:17:13.059Z,24.51
2023-04-27T02:18:13.054Z,24.49
2023-04-27T02:19:13.235Z,24.47
2023-04-27T02:20:13.060Z,24.44
2023-04-27T02:21:13.037Z,24.43
2023-04-27T02:22:13.035Z,24.40
2023-04-27T02:23:13.017Z,24.39
2023-04-27T02:24:13.030Z,24.35
2023-04-27T02:25:13.046Z,24.34
2023-04-27T02:26:13.014Z,24.34
2023-04-27T02:27:13.042Z,24.33
2023-04-27T02:28:13.111Z,24.30
2023-04-27T02:29:13.568Z,24.27
2023-04-27T02:30:13.193Z,24.25
2023-04-27T02:31:13.268Z,24.23
2023-04-27T02:32:13.300Z,24.21
2023-04-27T02:33:13.333Z,24.20
2023-04-27T02:34:13.348Z,24.16
2023-04-27T02:35:13.434Z,24.17
2023-04-27T02:36:13.515Z,24.15
2023-04-27T02:37:13.546Z,24.13
2023-04-27T02:38:13.590Z,24.12
2023-04-27T02:39:13.851Z,24.09
2023-04-27T02:40:13.709Z,24.08
2023-04-27T02:41:13.778Z,24.06
2023-04-27T02:42:13.876Z,24.05
2023-04-27T02:43:13.870Z,24.05
2023-04-27T02:44:13.949Z,24.02
2023-04-27T02:45:13.966Z,24.04
2023-04-27T02:46:14.173Z,24.04
2023-04-27T02:47:14.075Z,24.02
2023-04-27T02:48:14.141Z,24.00
2023-04-27T02:49:14.502Z,23.97
2023-04-27T02:50:14.235Z,23.98
2023-04-27T02:51:14.301Z,23.98
2023-04-27T02:52:14.346Z,23.97
2023-04-27T02:53:14.379Z,23.96
2023-04-27T02:54:14.435Z,23.92
2023-04-27T02:55:14.479Z,23.95
2023-04-27T02:56:14.501Z,23.94
2023-04-27T02:57:14.563Z,23.94
2023-04-27T02:58:14.590Z,23.95
2023-04-27T02:59:14.933Z,23.94
2023-04-27T03:00:14.680Z,23.93
2023-04-27T03:01:14.739Z,23.92
2023-04-27T03:02:14.764Z,23.90
2023-04-27T03:03:14.901Z,23.90
2023-04-27T03:04:15.251Z,23.89
2023-04-27T03:05:14.855Z,23.90
2023-04-27T03:06:14.866Z,23.91
2023-04-27T03:07:14.925Z,23.89
2023-04-27T03:08:14.958Z,23.90
2023-04-27T03:09:15.480Z,23.91
2023-04-27T03:10:14.987Z,23.92
2023-04-27T03:11:15.030Z,23.90
2023-04-27T03:12:15.067Z,23.88
2023-04-27T03:13:15.140Z,23.90
2023-04-27T03:14:15.167Z,23.89
2023-04-27T03:15:15.230Z,23.89
2023-04-27T03:16:15.255Z,23.88
2023-04-27T03:17:15.294Z,23.87
2023-04-27T03:18:15.287Z,23.86
2023-04-27T03:19:15.504Z,23.86
2023-04-27T03:20:15.376Z,23.86
2023-04-27T03:21:15.394Z,23.84
2023-04-27T03:22:15.428Z,23.84
2023-04-27T03:23:15.492Z,23.82
2023-04-27T03:24:15.495Z,23.84
2023-04-27T03:25:15.527Z,23.85
2023-04-27T03:26:15.553Z,23.85
2023-04-27T03:27:15.602Z,23.83
2023-04-27T03:28:15.618Z,23.84
2023-04-27T03:29:15.849Z,23.83
2023-04-27T03:30:15.652Z,23.82
2023-04-27T03:31:15.732Z,23.82
2023-04-27T03:32:15.755Z,23.83
2023-04-27T03:33:15.743Z,23.83
2023-04-27T03:34:15.760Z,23.84
2023-04-27T03:35:15.816Z,23.85
2023-04-27T03:36:15.830Z,23.81
2023-04-27T03:37:15.864Z,23.84
2023-04-27T03:38:15.897Z,23.86
2023-04-27T03:39:16.183Z,23.85
2023-04-27T03:40:15.975Z,23.84
2023-04-27T03:41:16.000Z,23.85
2023-04-27T03:42:15.989Z,23.88
2023-04-27T03:43:16.030Z,23.88
2023-04-27T03:44:16.043Z,23.87
2023-04-27T03:45:16.056Z,23.88
2023-04-27T03:46:16.117Z,23.90
2023-04-27T03:47:16.100Z,23.90
2023-04-27T03:48:16.147Z,23.90
2023-04-27T03:49:16.299Z,23.87
2023-04-27T03:50:16.187Z,23.90
2023-04-27T03:51:16.210Z,23.91
2023-04-27T03:52:16.196Z,23.89
2023-04-27T03:53:16.252Z,23.92
2023-04-27T03:54:16.254Z,23.94
2023-04-27T03:55:16.282Z,23.95
2023-04-27T03:56:16.295Z,23.96
2023-04-27T03:57:16.327Z,23.95
2023-04-27T03:58:16.349Z,23.96
2023-04-27T03:59:16.561Z,23.97
2023-04-27T04:00:16.368Z,24.00
2023-04-27T04:01:16.417Z,24.01
2023-04-27T04:02:16.486Z,24.00
2023-04-27T04:03:16.609Z,24.02
2023-04-27T04:04:16.673Z,24.02
2023-04-27T04:05:16.463Z,24.04
2023-04-27T04:06:16.476Z,24.05
2023-04-27T04:07:16.507Z,24.07
2023-04-27T04:08:16.511Z,24.09
2023-04-27T04:09:16.535Z,24.08
2023-04-27T04:10:16.545Z,24.11
2023-04-27T04:11:16.524Z,24.12
2023-04-27T04:12:16.581Z,24.12
2023-04-27T04:13:16.578Z,24.12
2023-04-27T04:14:16.561Z,24.11
2023-04-27T04:15:16.607Z,24.13
2023-04-27T04:16:16.620Z,24.15
2023-04-27T04:17:16.623Z,24.14
2023-04-27T04:18:16.629Z,24.15
2023-04-27T04:19:16.755Z,24.18
2023-04-27T04:20:16.677Z,24.18
2023-04-27T04:21:16.675Z,24.17
2023-04-27T04:22:16.700Z,24.19
2023-04-27T04:23:16.697Z,24.19
2023-04-27T04:24:16.688Z,24.21
2023-04-27T04:25:16.701Z,24.23
2023-04-27T04:26:16.773Z,24.25
2023-04-27T04:27:16.827Z,24.25
2023-04-27T04:28:16.770Z,24.30
2023-04-27T04:29:16.998Z,24.30
2023-04-27T04:30:16.779Z,24.31
2023-04-27T04:31:16.814Z,24.31
2023-04-27T04:32:16.827Z,24.33
2023-04-27T04:33:16.806Z,24.35
2023-04-27T04:34:16.855Z,24.39
2023-04-27T04:35:16.843Z,24.38
2023-04-27T04:36:16.837Z,24.42
2023-04-27T04:37:16.847Z,24.43
2023-04-27T04:38:16.868Z,24.47
2023-04-27T04:39:17.161Z,24.47
2023-04-27T04:40:16.874Z,24.49
2023-04-27T04:41:16.871Z,24.53
2023-04-27T04:42:16.903Z,24.54
2023-04-27T04:43:16.917Z,24.60
2023-04-27T04:44:16.939Z,24.66
2023-04-27T04:45:16.953Z,24.64
2023-04-27T04:46:16.979Z,24.63
2023-04-27T04:47:16.989Z,24.67
2023-04-27T04:48:16.992Z,24.70
2023-04-27T04:49:16.988Z,24.70
2023-04-27T04:50:17.032Z,24.72
2023-04-27T04:51:17.040Z,24.77
2023-04-27T04:52:17.062Z,24.80
2023-04-27T04:54:36.461Z,24.82
2023-04-27T04:55:36.424Z,24.84
2023-04-27T04:56:36.432Z,24.89
2023-04-27T04:57:36.439Z,24.95
2023-04-27T04:58:36.418Z,24.94
2023-04-27T04:59:36.399Z,24.93
2023-04-27T05:00:36.418Z,24.93
2023-04-27T05:01:43.482Z,24.93
2023-04-27T05:02:36.516Z,24.95
2023-04-27T05:03:36.509Z,25.00
2023-04-27T05:04:36.419Z,25.01
2023-04-27T05:05:36.397Z,25.00
2023-04-27T05:06:36.379Z,25.02
2023-04-27T05:07:36.357Z,25.02
2023-04-27T05:08:36.381Z,25.01
2023-04-27T05:09:36.352Z,25.01
2023-04-27T05:10:36.352Z,25.02
2023-04-27T05:11:36.368Z,25.02
2023-04-27T05:12:36.328Z,25.01
2023-04-27T05:13:37.251Z,25.07
2023-04-27T05:14:36.356Z,25.04
2023-04-27T05:15:36.337Z,25.05
2023-04-27T05:16:36.456Z,25.05
2023-04-27T05:17:36.344Z,25.03
2023-04-27T05:18:36.325Z,25.05
2023-04-27T05:19:36.265Z,25.05
2023-04-27T05:20:36.286Z,25.07
2023-04-27T05:21:36.246Z,25.07
2023-04-27T05:22:36.377Z,25.06
2023-04-27T05:23:36.253Z,25.07
2023-04-27T05:24:36.233Z,25.09
2023-04-27T05:25:36.238Z,25.11
2023-04-27T05:26:36.257Z,25.10
2023-04-27T05:27:36.221Z,25.13
2023-04-27T05:28:36.242Z,25.46
2023-04-27T05:29:36.240Z,25.59
2023-04-27T05:30:36.260Z,25.69
2023-04-27T05:31:36.247Z,25.73
2023-04-27T05:32:36.309Z,26.51
2023-04-27T05:33:36.209Z,26.69
2023-04-27T05:34:36.179Z,27.18
2023-04-27T05:35:36.212Z,27.25
2023-04-27T05:36:36.192Z,28.08
2023-04-27T05:37:36.205Z,27.86
2023-04-27T05:38:36.172Z,28.12
2023-04-27T05:39:36.293Z,28.33
2023-04-27T05:40:36.247Z,28.75
2023-04-27T05:41:36.318Z,29.11
2023-04-27T05:42:36.735Z,29.19
2023-04-27T05:43:36.438Z,29.59
2023-04-27T05:44:36.558Z,29.58
2023-04-27T05:45:43.571Z,29.80
2023-04-27T05:46:38.708Z,30.28
2023-04-27T05:47:36.818Z,30.84
2023-04-27T05:48:36.628Z,31.34
2023-04-27T05:49:36.637Z,31.48
2023-04-27T05:50:36.719Z,31.22
2023-04-27T05:51:36.729Z,31.65
2023-04-27T05:52:38.219Z,31.60
2023-04-27T05:53:36.737Z,31.86
2023-04-27T05:54:36.747Z,32.22
2023-04-27T05:55:36.789Z,32.06
2023-04-27T05:56:36.802Z,32.21
2023-04-27T05:57:36.867Z,32.50
2023-04-27T05:58:36.862Z,32.27
2023-04-27T05:59:36.868Z,32.49
2023-04-27T06:00:36.993Z,32.16
2023-04-27T06:01:36.986Z,32.31
2023-04-27T06:02:37.108Z,31.57
2023-04-27T06:03:37.140Z,31.49
2023-04-27T06:04:37.214Z,31.12
2023-04-27T06:05:37.147Z,30.83
2023-04-27T06:06:37.077Z,31.43
2023-04-27T06:07:37.087Z,30.66
2023-04-27T06:08:37.293Z,30.51
2023-04-27T06:09:37.090Z,31.42
2023-04-27T06:10:37.125Z,31.09
2023-04-27T06:11:37.178Z,30.81
2023-04-27T06:12:37.185Z,30.74
2023-04-27T06:13:37.214Z,30.24
2023-04-27T06:14:37.241Z,31.23
2023-04-27T06:15:37.338Z,31.57
2023-04-27T06:16:37.287Z,31.32
2023-04-27T06:17:37.314Z,31.23
2023-04-27T06:18:37.310Z,31.40
2023-04-27T06:19:37.315Z,31.36
2023-04-27T06:20:37.330Z,31.71
2023-04-27T06:21:37.290Z,31.49
2023-04-27T06:22:37.351Z,31.60
2023-04-27T06:23:37.351Z,31.41
2023-04-27T06:24:37.421Z,32.68
2023-04-27T06:25:37.430Z,32.05
2023-04-27T06:26:37.581Z,31.93
2023-04-27T06:27:37.724Z,31.77
2023-04-27T06:28:37.592Z,32.23
2023-04-27T06:29:37.663Z,32.18
2023-04-27T06:30:39.513Z,31.90
2023-04-27T06:31:37.834Z,32.01
2023-04-27T06:32:37.888Z,32.21
2023-04-27T06:33:38.279Z,32.27
2023-04-27T06:34:37.983Z,32.44
2023-04-27T06:35:37.997Z,32.35
2023-04-27T06:36:38.051Z,31.47
2023-04-27T06:37:38.198Z,31.21
2023-04-27T06:38:38.295Z,31.07
2023-04-27T06:39:38.219Z,31.05
2023-04-27T06:40:38.294Z,30.90
2023-04-27T06:41:38.284Z,31.08
2023-04-27T06:42:38.380Z,31.28
2023-04-27T06:43:38.288Z,31.32
2023-04-27T06:44:38.271Z,31.57
2023-04-27T06:45:38.280Z,32.08
2023-04-27T06:46:38.366Z,32.03
2023-04-27T06:47:38.436Z,31.77
2023-04-27T06:48:38.817Z,32.38
2023-04-27T06:49:38.351Z,31.80
2023-04-27T06:50:38.320Z,32.12
2023-04-27T06:51:38.293Z,31.97
2023-04-27T06:52:38.332Z,32.36
2023-04-27T06:53:38.416Z,32.35
2023-04-27T06:54:38.410Z,31.93
2023-04-27T06:55:38.949Z,31.99
2023-04-27T06:56:38.577Z,32.22
2023-04-27T06:57:38.613Z,31.83
2023-04-27T06:58:38.659Z,32.08
2023-04-27T06:59:38.709Z,32.37
2023-04-27T07:00:38.737Z,32.17
2023-04-27T07:01:38.817Z,31.91
2023-04-27T07:02:38.886Z,32.31
2023-04-27T07:03:38.990Z,32.06
2023-04-27T07:04:38.968Z,32.05
2023-04-27T07:05:38.904Z,32.03
2023-04-27T07:06:38.931Z,32.00
2023-04-27T07:07:39.004Z,31.77
2023-04-27T07:08:39.334Z,30.92
2023-04-27T07:09:39.092Z,30.65
2023-04-27T07:10:39.101Z,30.36
2023-04-27T07:11:39.251Z,30.08
2023-04-27T07:12:39.151Z,30.09
2023-04-27T07:13:39.156Z,30.22
2023-04-27T07:14:39.163Z,30.33
2023-04-27T07:15:39.184Z,30.41
2023-04-27T07:16:39.251Z,30.41
2023-04-27T07:17:39.259Z,30.42
2023-04-27T07:18:39.266Z,30.32
2023-04-27T07:19:39.257Z,30.23
2023-04-27T07:20:39.263Z,30.09
2023-04-27T07:21:39.240Z,30.10
2023-04-27T07:22:39.330Z,30.06
2023-04-27T07:23:39.325Z,30.09
2023-04-27T07:24:39.382Z,29.97
2023-04-27T07:25:39.359Z,29.94
2023-04-27T07:26:39.386Z,29.91
2023-04-27T07:27:39.386Z,29.89
2023-04-27T07:28:39.440Z,29.86
2023-04-27T07:29:39.418Z,29.82
2023-04-27T07:30:39.485Z,29.78
2023-04-27T07:31:39.508Z,30.60
2023-04-27T07:32:39.507Z,30.49
2023-04-27T07:33:39.855Z,29.86
2023-04-27T07:34:51.913Z,30.93
2023-04-27T07:35:40.565Z,31.25
2023-04-27T07:36:39.575Z,31.18
2023-04-27T07:37:39.568Z,31.17
2023-04-27T07:38:39.531Z,31.22
2023-04-27T07:39:39.806Z,31.88
2023-04-27T07:40:39.545Z,32.25
2023-04-27T07:41:39.496Z,32.90
2023-04-27T07:42:39.515Z,33.78
2023-04-27T07:43:39.499Z,33.92
2023-04-27T07:44:39.601Z,33.69
2023-04-27T07:45:39.501Z,32.83
2023-04-27T07:46:39.453Z,32.83
2023-04-27T07:47:39.505Z,32.75
2023-04-27T07:48:39.491Z,32.52
2023-04-27T07:49:39.467Z,32.31
2023-04-27T07:50:39.522Z,32.19
2023-04-27T07:51:39.555Z,31.89
2023-04-27T07:52:39.567Z,31.75
2023-04-27T07:53:39.643Z,31.63
2023-04-27T07:54:39.588Z,31.51
2023-04-27T07:55:39.620Z,31.35
2023-04-27T07:56:39.701Z,31.26
2023-04-27T07:57:39.707Z,31.19
2023-04-27T07:58:39.723Z,31.13
2023-04-27T07:59:39.712Z,31.08
2023-04-27T08:00:39.690Z,30.99
2023-04-27T08:01:40.319Z,30.91
2023-04-27T08:02:39.831Z,30.86
2023-04-27T08:03:40.086Z,30.81
2023-04-27T08:04:39.886Z,30.71
2023-04-27T08:05:40.216Z,30.66
2023-04-27T08:06:40.316Z,30.63
2023-04-27T08:07:44.075Z,30.55
2023-04-27T08:08:39.765Z,30.51
2023-04-27T08:09:39.841Z,30.47
2023-04-27T08:10:39.750Z,30.42
2023-04-27T08:11:39.746Z,30.37
2023-04-27T08:12:39.720Z,30.32
2023-04-27T08:13:39.782Z,30.27
2023-04-27T08:14:39.709Z,30.24
2023-04-27T08:15:39.718Z,30.21
2023-04-27T08:16:39.705Z,30.18
2023-04-27T08:17:39.761Z,30.13
2023-04-27T08:18:39.722Z,30.07
2023-04-27T08:19:39.726Z,30.06
2023-04-27T08:20:39.721Z,30.03
2023-04-27T08:21:39.752Z,29.95
2023-04-27T08:22:39.780Z,29.91
2023-04-27T08:23:39.829Z,29.87
2023-04-27T08:24:40.020Z,29.86
2023-04-27T08:25:39.980Z,29.80
2023-04-27T08:26:40.030Z,29.74
2023-04-27T08:27:40.157Z,29.70
2023-04-27T08:28:40.178Z,29.66
2023-04-27T08:29:40.231Z,29.62
2023-04-27T08:30:40.249Z,29.56
2023-04-27T08:31:40.380Z,29.52
2023-04-27T08:32:40.523Z,29.64
2023-04-27T08:33:40.427Z,30.07
2023-04-27T08:34:40.467Z,29.79
2023-04-27T08:35:40.462Z,29.57
2023-04-27T08:36:40.467Z,29.78
2023-04-27T08:37:40.492Z,29.78
2023-04-27T08:38:40.486Z,29.77
2023-04-27T08:39:40.478Z,29.68
2023-04-27T08:40:40.455Z,29.66
2023-04-27T08:41:40.482Z,29.62
2023-04-27T08:42:40.473Z,29.52
2023-04-27T08:43:40.521Z,29.52
2023-04-27T08:44:40.545Z,29.39
2023-04-27T08:45:40.541Z,29.34
2023-04-27T08:46:40.590Z,29.29
2023-04-27T08:47:43.795Z,29.25
2023-04-27T08:48:40.603Z,29.21
2023-04-27T08:49:40.635Z,29.19
2023-04-27T08:50:40.602Z,29.17
2023-04-27T08:51:40.622Z,29.09
2023-04-27T08:52:40.588Z,29.59
2023-04-27T08:53:40.552Z,30.80
2023-04-27T08:54:40.568Z,31.74
2023-04-27T08:55:40.572Z,33.63
2023-04-27T08:56:40.590Z,33.52
2023-04-27T08:57:40.548Z,33.99
2023-04-27T08:58:40.590Z,33.83
2023-04-27T08:59:40.530Z,33.91
2023-04-27T09:00:40.553Z,34.65
2023-04-27T09:01:40.532Z,34.23
2023-04-27T09:02:40.637Z,34.28
2023-04-27T09:03:40.660Z,34.02
2023-04-27T09:04:40.565Z,34.55
2023-04-27T09:05:46.636Z,34.54
2023-04-27T09:06:41.532Z,34.68
2023-04-27T09:07:40.520Z,34.72
2023-04-27T09:08:40.490Z,34.62
2023-04-27T09:09:40.454Z,34.54
2023-04-27T09:10:40.471Z,34.74
2023-04-27T09:11:40.479Z,34.47
2023-04-27T09:12:40.456Z,34.23
2023-04-27T09:13:40.487Z,34.10
2023-04-27T09:14:41.309Z,34.11
2023-04-27T09:15:40.437Z,33.93
2023-04-27T09:16:40.488Z,33.98
2023-04-27T09:17:40.444Z,34.22
2023-04-27T09:18:40.421Z,34.31
2023-04-27T09:19:40.422Z,34.13
2023-04-27T09:20:40.463Z,34.10
2023-04-27T09:21:40.386Z,34.54
2023-04-27T09:22:40.416Z,34.16
2023-04-27T09:23:40.418Z,34.10
2023-04-27T09:24:40.455Z,34.09
2023-04-27T09:25:40.570Z,34.52
2023-04-27T09:26:40.584Z,34.22
2023-04-27T09:27:40.641Z,34.20
2023-04-27T09:28:40.654Z,34.17
2023-04-27T09:29:40.737Z,34.33
2023-04-27T09:30:40.840Z,34.25
2023-04-27T09:31:40.867Z,34.40
2023-04-27T09:32:40.926Z,34.34
2023-04-27T09:33:40.942Z,34.38
2023-04-27T09:34:40.947Z,34.36
2023-04-27T09:35:41.373Z,34.25
2023-04-27T09:36:40.990Z,34.65
2023-04-27T09:37:41.057Z,34.55
2023-04-27T09:38:41.028Z,34.21
2023-04-27T09:39:41.034Z,34.11
2023-04-27T09:40:41.386Z,34.15
2023-04-27T09:41:41.116Z,34.53
2023-04-27T09:42:41.140Z,31.39
2023-04-27T09:43:41.169Z,29.95
2023-04-27T09:44:41.216Z,30.00
2023-04-27T09:45:41.319Z,30.48
2023-04-27T09:46:41.257Z,31.85
2023-04-27T09:47:41.341Z,32.10
2023-04-27T09:48:41.373Z,31.20
2023-04-27T09:49:41.404Z,31.21
2023-04-27T09:50:41.876Z,31.86
2023-04-27T09:51:41.593Z,31.40
2023-04-27T09:52:41.672Z,30.46
2023-04-27T09:53:41.706Z,30.71
2023-04-27T09:54:41.726Z,29.82
2023-04-27T09:55:41.864Z,29.51
2023-04-27T09:56:41.774Z,29.80
2023-04-27T09:57:41.778Z,29.48
2023-04-27T09:58:42.384Z,29.30
2023-04-27T09:59:41.768Z,30.21
2023-04-27T10:00:41.798Z,28.92
2023-04-27T10:01:41.952Z,28.78
2023-04-27T10:02:50.297Z,29.19
2023-04-27T10:03:42.813Z,29.20
2023-04-27T10:04:41.935Z,30.33
2023-04-27T10:05:41.782Z,30.97
2023-04-27T10:06:41.770Z,29.85
2023-04-27T10:07:41.736Z,28.75
2023-04-27T10:08:41.735Z,28.57
2023-04-27T10:09:41.730Z,27.90
2023-04-27T10:10:41.893Z,27.89
2023-04-27T10:11:41.754Z,27.80
2023-04-27T10:12:41.760Z,27.95
2023-04-27T10:13:41.915Z,27.42
2023-04-27T10:14:41.708Z,27.43
2023-04-27T10:15:41.674Z,28.35
2023-04-27T10:16:41.740Z,28.54
2023-04-27T10:17:42.017Z,28.31
2023-04-27T10:18:41.649Z,28.55
2023-04-27T10:19:41.649Z,28.47
2023-04-27T10:20:41.680Z,31.41
2023-04-27T10:21:41.737Z,28.89
2023-04-27T10:22:41.775Z,28.84
2023-04-27T10:23:41.808Z,28.83
2023-04-27T10:24:41.905Z,28.92
2023-04-27T10:25:42.039Z,29.47
2023-04-27T10:26:41.902Z,30.10
2023-04-27T10:27:41.951Z,30.12
2023-04-27T10:28:41.918Z,30.01
2023-04-27T10:29:42.036Z,31.19
2023-04-27T10:30:41.995Z,30.04
2023-04-27T10:31:41.998Z,29.96
2023-04-27T10:32:42.018Z,30.24
2023-04-27T10:33:41.960Z,29.63
2023-04-27T10:34:41.972Z,29.50
2023-04-27T10:35:42.365Z,29.24
2023-04-27T10:36:42.064Z,28.89
2023-04-27T10:37:42.045Z,28.79
2023-04-27T10:38:42.043Z,28.62
2023-04-27T10:39:48.462Z,28.76
2023-04-27T10:40:43.405Z,28.87
2023-04-27T10:41:42.045Z,28.94
2023-04-27T10:42:42.023Z,28.97
2023-04-27T10:43:42.017Z,28.57
2023-04-27T10:44:42.030Z,28.78
2023-04-27T10:45:42.040Z,29.83
2023-04-27T10:46:42.450Z,29.83
2023-04-27T10:47:42.046Z,29.75
2023-04-27T10:48:41.982Z,29.67
2023-04-27T10:49:41.974Z,29.73
2023-04-27T10:50:41.980Z,29.69
2023-04-27T10:51:41.985Z,29.40
2023-04-27T10:52:41.982Z,29.16
2023-04-27T10:53:41.952Z,28.97
2023-04-27T10:54:41.950Z,28.92
2023-04-27T10:55:41.936Z,28.94
2023-04-27T10:56:42.380Z,28.90
2023-04-27T10:57:41.961Z,28.87
2023-04-27T10:58:48.667Z,28.52
2023-04-27T10:59:42.982Z,28.35
2023-04-27T11:00:41.976Z,28.35
2023-04-27T11:01:42.016Z,28.49
2023-04-27T11:02:42.063Z,28.61
2023-04-27T11:03:42.057Z,28.53
2023-04-27T11:04:42.067Z,28.34
2023-04-27T11:05:41.964Z,28.40
2023-04-27T11:06:41.983Z,28.43
2023-04-27T11:07:41.954Z,28.50
2023-04-27T11:08:41.928Z,28.26
2023-04-27T11:09:41.934Z,28.39
2023-04-27T11:10:42.003Z,28.29
2023-04-27T11:11:42.070Z,28.31
2023-04-27T11:12:42.169Z,28.44
2023-04-27T11:13:42.170Z,28.42
2023-04-27T11:14:42.190Z,28.44
2023-04-27T11:15:42.333Z,28.42
2023-04-27T11:16:42.493Z,28.44
2023-04-27T11:17:42.339Z,28.43
2023-04-27T11:18:42.314Z,28.42
2023-04-27T11:19:42.391Z,28.37
2023-04-27T11:20:42.427Z,28.39
2023-04-27T11:21:42.930Z,28.38
2023-04-27T11:22:42.450Z,28.39
2023-04-27T11:23:42.935Z,28.40
2023-04-27T11:24:42.445Z,28.40
2023-04-27T11:25:42.505Z,28.36
2023-04-27T11:26:42.564Z,28.35
2023-04-27T11:27:42.563Z,28.30
2023-04-27T11:28:42.554Z,28.27
2023-04-27T11:29:42.575Z,28.27
2023-04-27T11:30:42.590Z,28.25
2023-04-27T11:31:42.985Z,28.26
2023-04-27T11:32:42.624Z,28.24
2023-04-27T11:33:42.601Z,28.22
2023-04-27T11:34:42.602Z,28.31
2023-04-27T11:35:42.620Z,28.32
2023-04-27T11:36:42.912Z,28.38
2023-04-27T11:37:42.692Z,28.32
2023-04-27T11:38:42.673Z,28.30
2023-04-27T11:39:42.677Z,28.26
2023-04-27T11:40:42.710Z,28.26
2023-04-27T11:41:42.914Z,28.22
2023-04-27T11:42:42.747Z,28.21
2023-04-27T11:43:42.754Z,28.17
2023-04-27T11:44:42.771Z,28.15
2023-04-27T11:45:42.753Z,28.04
2023-04-27T11:46:42.803Z,28.08
2023-04-27T11:47:42.785Z,28.04
2023-04-27T11:48:42.795Z,28.02
2023-04-27T11:49:42.770Z,27.98
2023-04-27T11:50:42.797Z,27.91
2023-04-27T11:51:42.907Z,27.93
2023-04-27T11:52:42.832Z,27.89
2023-04-27T11:53:42.887Z,27.88
2023-04-27T11:54:42.803Z,27.83
2023-04-27T11:55:42.808Z,27.81
2023-04-27T11:56:42.975Z,27.81
2023-04-27T11:57:42.830Z,27.78
2023-04-27T11:58:44.391Z,27.79
2023-04-27T11:59:42.870Z,27.80
2023-04-27T12:00:42.853Z,27.76
2023-04-27T12:01:42.807Z,27.75
2023-04-27T12:02:43.082Z,27.70
2023-04-27T12:03:42.983Z,27.70
2023-04-27T12:04:43.180Z,27.67
2023-04-27T12:05:42.806Z,27.64
2023-04-27T12:06:42.778Z,27.62
2023-04-27T12:07:42.760Z,27.61
2023-04-27T12:08:42.754Z,27.58
2023-04-27T12:09:42.794Z,27.57
2023-04-27T12:10:42.790Z,27.55
2023-04-27T12:11:42.758Z,27.55
2023-04-27T12:12:42.761Z,27.51
2023-04-27T12:13:42.743Z,27.49
2023-04-27T12:14:42.732Z,27.46
2023-04-27T12:15:42.733Z,27.45
2023-04-27T12:16:42.792Z,27.42
2023-04-27T12:17:42.754Z,27.42
2023-04-27T12:18:42.722Z,27.41
2023-04-27T12:19:42.709Z,27.41
2023-04-27T12:20:42.687Z,27.40
2023-04-27T12:21:42.668Z,27.41
2023-04-27T12:22:42.669Z,27.41
2023-04-27T12:23:42.661Z,27.40
2023-04-27T12:24:42.690Z,27.37
2023-04-27T12:25:42.661Z,27.35
2023-04-27T12:26:42.644Z,27.36
2023-04-27T12:27:42.613Z,27.36
2023-04-27T12:28:42.613Z,27.37
2023-04-27T12:29:42.626Z,27.36
2023-04-27T12:30:42.702Z,27.34
2023-04-27T12:31:42.711Z,27.33
2023-04-27T12:32:42.614Z,27.40
2023-04-27T12:33:42.585Z,28.28
2023-04-27T12:34:42.596Z,28.06
2023-04-27T12:35:42.582Z,28.05
2023-04-27T12:36:42.621Z,28.02
2023-04-27T12:37:42.598Z,27.97
2023-04-27T12:38:42.570Z,28.07
2023-04-27T12:39:42.592Z,27.91
2023-04-27T12:40:42.560Z,27.85
2023-04-27T12:41:42.594Z,27.85
2023-04-27T12:42:42.555Z,27.79
2023-04-27T12:43:42.545Z,27.83
2023-04-27T12:44:42.498Z,27.75
2023-04-27T12:45:42.507Z,27.76
2023-04-27T12:46:42.605Z,27.71
2023-04-27T12:47:58.169Z,27.68
2023-04-27T12:48:43.509Z,27.81
2023-04-27T12:49:42.480Z,27.79
2023-04-27T12:50:42.519Z,27.77
2023-04-27T12:51:42.492Z,27.80
2023-04-27T12:52:42.482Z,27.85
2023-04-27T12:53:42.459Z,27.98